sensor_id;sensor_type;location;lat;lon;timestamp;temperature;humidity
58096;DHT22;43908;53.038;6.666;2022-10-17T00:02:23;11.40;99.90
58096;DHT22;43908;53.038;6.666;2022-10-17T00:04:49;11.40;99.90
58096;DHT22;43908;53.038;6.666;2022-10-17T00:07:15;11.40;99.90
58096;DHT22;43908;53.038;6.666;2022-10-17T00:09:43;11.40;99.90
58096;DHT22;43908;53.038;6.666;2022-10-17T00:12:09;11.40;99.90
58096;DHT22;43908;53.038;6.666;2022-10-17T00:14:35;11.40;99.90
58096;DHT22;43908;53.038;6.666;2022-10-17T00:17:00;11.50;99.90
58096;DHT22;43908;53.038;6.666;2022-10-17T00:19:26;11.50;99.90
58096;DHT22;43908;53.038;6.666;2022-10-17T00:21:51;11.50;99.90
58096;DHT22;43908;53.038;6.666;2022-10-17T00:24:17;11.50;99.90
58096;DHT22;43908;53.038;6.666;2022-10-17T00:26:42;11.50;99.90
58096;DHT22;43908;53.038;6.666;2022-10-17T00:29:08;11.50;99.90
58096;DHT22;43908;53.038;6.666;2022-10-17T00:31:33;11.50;99.90
58096;DHT22;43908;53.038;6.666;2022-10-17T00:33:59;11.60;99.90
58096;DHT22;43908;53.038;6.666;2022-10-17T00:36:25;11.60;99.90
58096;DHT22;43908;53.038;6.666;2022-10-17T00:38:52;11.70;99.90
58096;DHT22;43908;53.038;6.666;2022-10-17T00:41:19;11.70;99.90
58096;DHT22;43908;53.038;6.666;2022-10-17T00:44:02;11.80;99.90
58096;DHT22;43908;53.038;6.666;2022-10-17T00:46:31;11.80;99.90
58096;DHT22;43908;53.038;6.666;2022-10-17T00:48:58;12.00;99.90
58096;DHT22;43908;53.038;6.666;2022-10-17T00:54:02;12.10;99.90
58096;DHT22;43908;53.038;6.666;2022-10-17T00:56:28;12.20;99.90
58096;DHT22;43908;53.038;6.666;2022-10-17T00:58:54;12.30;99.90
58096;DHT22;43908;53.038;6.666;2022-10-17T01:01:19;12.40;99.90
58096;DHT22;43908;53.038;6.666;2022-10-17T01:03:45;12.50;99.90
58096;DHT22;43908;53.038;6.666;2022-10-17T01:06:10;12.50;99.90
58096;DHT22;43908;53.038;6.666;2022-10-17T01:08:36;12.50;99.90
58096;DHT22;43908;53.038;6.666;2022-10-17T01:11:12;12.50;99.90
58096;DHT22;43908;53.038;6.666;2022-10-17T01:13:51;12.50;99.90
58096;DHT22;43908;53.038;6.666;2022-10-17T01:16:20;12.50;99.90
58096;DHT22;43908;53.038;6.666;2022-10-17T01:21:28;12.60;99.90
58096;DHT22;43908;53.038;6.666;2022-10-17T01:24:09;12.60;99.90
58096;DHT22;43908;53.038;6.666;2022-10-17T01:26:48;12.70;99.90
58096;DHT22;43908;53.038;6.666;2022-10-17T01:31:46;12.70;99.90
58096;DHT22;43908;53.038;6.666;2022-10-17T01:34:28;12.70;99.90
58096;DHT22;43908;53.038;6.666;2022-10-17T01:37:05;12.80;99.90
58096;DHT22;43908;53.038;6.666;2022-10-17T01:42:06;12.80;99.90
58096;DHT22;43908;53.038;6.666;2022-10-17T01:44:39;12.80;99.90
58096;DHT22;43908;53.038;6.666;2022-10-17T01:47:09;12.90;99.90
58096;DHT22;43908;53.038;6.666;2022-10-17T01:49:35;12.90;99.90
58096;DHT22;43908;53.038;6.666;2022-10-17T01:52:05;12.90;99.90
58096;DHT22;43908;53.038;6.666;2022-10-17T01:54:35;12.90;99.90
58096;DHT22;43908;53.038;6.666;2022-10-17T01:57:04;12.90;99.90
58096;DHT22;43908;53.038;6.666;2022-10-17T01:59:38;12.80;99.90
58096;DHT22;43908;53.038;6.666;2022-10-17T02:02:05;12.80;99.90
58096;DHT22;43908;53.038;6.666;2022-10-17T02:04:31;12.80;99.90
58096;DHT22;43908;53.038;6.666;2022-10-17T02:06:56;12.70;99.90
58096;DHT22;43908;53.038;6.666;2022-10-17T02:09:29;12.70;99.90
58096;DHT22;43908;53.038;6.666;2022-10-17T02:12:10;12.70;99.90
58096;DHT22;43908;53.038;6.666;2022-10-17T02:14:42;12.60;99.90
58096;DHT22;43908;53.038;6.666;2022-10-17T02:17:35;12.70;99.90
58096;DHT22;43908;53.038;6.666;2022-10-17T02:28:18;12.50;99.90
58096;DHT22;43908;53.038;6.666;2022-10-17T02:30:47;12.50;99.90
58096;DHT22;43908;53.038;6.666;2022-10-17T02:33:15;12.50;99.90
58096;DHT22;43908;53.038;6.666;2022-10-17T02:35:44;12.50;99.90
58096;DHT22;43908;53.038;6.666;2022-10-17T02:38:11;12.50;99.90
58096;DHT22;43908;53.038;6.666;2022-10-17T02:40:38;12.50;99.90
58096;DHT22;43908;53.038;6.666;2022-10-17T02:43:04;12.40;99.90
58096;DHT22;43908;53.038;6.666;2022-10-17T02:45:31;12.40;99.90
58096;DHT22;43908;53.038;6.666;2022-10-17T02:50:37;12.30;99.90
58096;DHT22;43908;53.038;6.666;2022-10-17T02:53:08;12.30;99.90
58096;DHT22;43908;53.038;6.666;2022-10-17T02:55:35;12.20;99.90
58096;DHT22;43908;53.038;6.666;2022-10-17T02:58:05;12.20;99.90
58096;DHT22;43908;53.038;6.666;2022-10-17T03:00:31;12.20;99.90
58096;DHT22;43908;53.038;6.666;2022-10-17T03:02:57;12.20;99.90
58096;DHT22;43908;53.038;6.666;2022-10-17T03:05:24;12.20;99.90
58096;DHT22;43908;53.038;6.666;2022-10-17T03:07:50;12.20;99.90
58096;DHT22;43908;53.038;6.666;2022-10-17T03:10:16;12.20;99.90
58096;DHT22;43908;53.038;6.666;2022-10-17T03:12:42;12.20;99.90
58096;DHT22;43908;53.038;6.666;2022-10-17T03:15:07;12.20;99.90
58096;DHT22;43908;53.038;6.666;2022-10-17T03:17:33;12.20;99.90
58096;DHT22;43908;53.038;6.666;2022-10-17T03:19:58;12.20;99.90
58096;DHT22;43908;53.038;6.666;2022-10-17T03:22:24;12.20;99.90
58096;DHT22;43908;53.038;6.666;2022-10-17T03:24:49;12.20;99.90
58096;DHT22;43908;53.038;6.666;2022-10-17T03:27:15;12.20;99.90
58096;DHT22;43908;53.038;6.666;2022-10-17T03:29:40;12.20;99.90
58096;DHT22;43908;53.038;6.666;2022-10-17T03:32:06;12.20;99.90
58096;DHT22;43908;53.038;6.666;2022-10-17T03:34:31;12.20;99.90
58096;DHT22;43908;53.038;6.666;2022-10-17T03:36:56;12.20;99.90
58096;DHT22;43908;53.038;6.666;2022-10-17T03:39:22;12.30;99.90
58096;DHT22;43908;53.038;6.666;2022-10-17T03:41:47;12.30;99.90
58096;DHT22;43908;53.038;6.666;2022-10-17T03:44:13;12.30;99.90
58096;DHT22;43908;53.038;6.666;2022-10-17T03:46:38;12.30;99.90
58096;DHT22;43908;53.038;6.666;2022-10-17T03:49:04;12.30;99.90
58096;DHT22;43908;53.038;6.666;2022-10-17T03:51:30;12.30;99.90
58096;DHT22;43908;53.038;6.666;2022-10-17T03:53:56;12.30;99.90
58096;DHT22;43908;53.038;6.666;2022-10-17T03:56:23;12.30;99.90
58096;DHT22;43908;53.038;6.666;2022-10-17T03:58:48;12.30;99.90
58096;DHT22;43908;53.038;6.666;2022-10-17T04:01:15;12.30;99.90
58096;DHT22;43908;53.038;6.666;2022-10-17T04:03:40;12.20;99.90
58096;DHT22;43908;53.038;6.666;2022-10-17T04:06:06;12.20;99.90
58096;DHT22;43908;53.038;6.666;2022-10-17T04:08:32;12.10;99.90
58096;DHT22;43908;53.038;6.666;2022-10-17T04:10:58;12.10;99.90
58096;DHT22;43908;53.038;6.666;2022-10-17T04:13:24;12.00;99.90
58096;DHT22;43908;53.038;6.666;2022-10-17T04:15:53;12.00;99.90
58096;DHT22;43908;53.038;6.666;2022-10-17T04:18:19;12.00;99.90
58096;DHT22;43908;53.038;6.666;2022-10-17T04:20:44;12.00;99.90
58096;DHT22;43908;53.038;6.666;2022-10-17T04:23:09;12.10;99.90
58096;DHT22;43908;53.038;6.666;2022-10-17T04:25:35;12.10;99.90
58096;DHT22;43908;53.038;6.666;2022-10-17T04:28:00;12.10;99.90
58096;DHT22;43908;53.038;6.666;2022-10-17T04:30:26;12.10;99.90
58096;DHT22;43908;53.038;6.666;2022-10-17T04:32:51;12.20;99.90
58096;DHT22;43908;53.038;6.666;2022-10-17T04:35:17;12.20;99.90
58096;DHT22;43908;53.038;6.666;2022-10-17T04:37:42;12.30;99.90
58096;DHT22;43908;53.038;6.666;2022-10-17T04:40:08;12.30;99.90
58096;DHT22;43908;53.038;6.666;2022-10-17T04:42:33;12.40;99.90
58096;DHT22;43908;53.038;6.666;2022-10-17T04:44:59;12.50;99.90
58096;DHT22;43908;53.038;6.666;2022-10-17T04:47:24;12.50;99.90
58096;DHT22;43908;53.038;6.666;2022-10-17T04:49:50;12.60;99.90
58096;DHT22;43908;53.038;6.666;2022-10-17T04:52:15;12.70;99.90
58096;DHT22;43908;53.038;6.666;2022-10-17T04:54:41;12.70;99.90
58096;DHT22;43908;53.038;6.666;2022-10-17T04:57:06;12.70;99.90
58096;DHT22;43908;53.038;6.666;2022-10-17T04:59:32;12.80;99.90
58096;DHT22;43908;53.038;6.666;2022-10-17T05:01:57;12.80;99.90
58096;DHT22;43908;53.038;6.666;2022-10-17T05:04:22;12.80;99.90
58096;DHT22;43908;53.038;6.666;2022-10-17T05:06:49;12.80;99.90
58096;DHT22;43908;53.038;6.666;2022-10-17T05:09:15;12.80;99.90
58096;DHT22;43908;53.038;6.666;2022-10-17T05:11:41;12.80;99.90
58096;DHT22;43908;53.038;6.666;2022-10-17T05:14:06;12.80;99.90
58096;DHT22;43908;53.038;6.666;2022-10-17T05:16:32;12.80;99.90
58096;DHT22;43908;53.038;6.666;2022-10-17T05:18:58;12.80;99.90
58096;DHT22;43908;53.038;6.666;2022-10-17T05:21:24;12.80;99.90
58096;DHT22;43908;53.038;6.666;2022-10-17T05:23:50;12.80;99.90
58096;DHT22;43908;53.038;6.666;2022-10-17T05:26:16;12.80;99.90
58096;DHT22;43908;53.038;6.666;2022-10-17T05:28:42;12.70;99.90
58096;DHT22;43908;53.038;6.666;2022-10-17T05:31:08;12.70;99.90
58096;DHT22;43908;53.038;6.666;2022-10-17T05:33:34;12.70;99.90
58096;DHT22;43908;53.038;6.666;2022-10-17T05:36:00;12.70;99.90
58096;DHT22;43908;53.038;6.666;2022-10-17T05:38:26;12.70;99.90
58096;DHT22;43908;53.038;6.666;2022-10-17T05:40:55;12.70;99.90
58096;DHT22;43908;53.038;6.666;2022-10-17T05:43:21;12.70;99.90
58096;DHT22;43908;53.038;6.666;2022-10-17T05:45:46;12.70;99.90
58096;DHT22;43908;53.038;6.666;2022-10-17T05:48:11;12.70;99.90
58096;DHT22;43908;53.038;6.666;2022-10-17T05:50:37;12.70;99.90
58096;DHT22;43908;53.038;6.666;2022-10-17T05:53:02;12.70;99.90
58096;DHT22;43908;53.038;6.666;2022-10-17T05:55:28;12.70;99.90
58096;DHT22;43908;53.038;6.666;2022-10-17T05:57:53;12.70;99.90
58096;DHT22;43908;53.038;6.666;2022-10-17T06:00:19;12.70;99.90
58096;DHT22;43908;53.038;6.666;2022-10-17T06:02:45;12.70;99.90
58096;DHT22;43908;53.038;6.666;2022-10-17T06:05:11;12.70;99.90
58096;DHT22;43908;53.038;6.666;2022-10-17T06:07:37;12.60;99.90
58096;DHT22;43908;53.038;6.666;2022-10-17T06:10:03;12.60;99.90
58096;DHT22;43908;53.038;6.666;2022-10-17T06:12:28;12.60;99.90
58096;DHT22;43908;53.038;6.666;2022-10-17T06:14:54;12.60;99.90
58096;DHT22;43908;53.038;6.666;2022-10-17T06:17:19;12.70;99.90
58096;DHT22;43908;53.038;6.666;2022-10-17T06:19:45;12.70;99.90
58096;DHT22;43908;53.038;6.666;2022-10-17T06:22:10;12.70;99.90
58096;DHT22;43908;53.038;6.666;2022-10-17T06:24:36;12.80;99.90
58096;DHT22;43908;53.038;6.666;2022-10-17T06:27:01;12.80;99.90
58096;DHT22;43908;53.038;6.666;2022-10-17T06:29:27;12.90;99.90
58096;DHT22;43908;53.038;6.666;2022-10-17T06:31:52;12.90;99.90
58096;DHT22;43908;53.038;6.666;2022-10-17T06:34:18;13.00;99.90
58096;DHT22;43908;53.038;6.666;2022-10-17T06:36:44;13.00;99.90
58096;DHT22;43908;53.038;6.666;2022-10-17T06:39:09;13.00;99.90
58096;DHT22;43908;53.038;6.666;2022-10-17T06:41:35;13.00;99.90
58096;DHT22;43908;53.038;6.666;2022-10-17T06:44:00;13.00;99.90
58096;DHT22;43908;53.038;6.666;2022-10-17T06:46:26;13.10;99.90
58096;DHT22;43908;53.038;6.666;2022-10-17T06:48:54;13.20;99.90
58096;DHT22;43908;53.038;6.666;2022-10-17T06:51:19;13.20;99.90
58096;DHT22;43908;53.038;6.666;2022-10-17T06:53:44;13.30;99.90
58096;DHT22;43908;53.038;6.666;2022-10-17T06:56:10;13.30;99.90
58096;DHT22;43908;53.038;6.666;2022-10-17T06:58:36;13.40;99.90
58096;DHT22;43908;53.038;6.666;2022-10-17T07:01:06;13.40;99.90
58096;DHT22;43908;53.038;6.666;2022-10-17T07:03:32;13.50;99.90
58096;DHT22;43908;53.038;6.666;2022-10-17T07:05:57;13.60;99.90
58096;DHT22;43908;53.038;6.666;2022-10-17T07:08:24;13.60;99.90
58096;DHT22;43908;53.038;6.666;2022-10-17T07:10:49;13.70;99.90
58096;DHT22;43908;53.038;6.666;2022-10-17T07:13:15;13.70;99.90
58096;DHT22;43908;53.038;6.666;2022-10-17T07:15:41;13.80;99.90
58096;DHT22;43908;53.038;6.666;2022-10-17T07:18:06;13.80;99.90
58096;DHT22;43908;53.038;6.666;2022-10-17T07:20:32;13.90;99.90
58096;DHT22;43908;53.038;6.666;2022-10-17T07:22:58;14.10;99.90
58096;DHT22;43908;53.038;6.666;2022-10-17T07:25:23;14.20;99.90
58096;DHT22;43908;53.038;6.666;2022-10-17T07:27:49;14.30;99.90
58096;DHT22;43908;53.038;6.666;2022-10-17T07:30:15;14.40;99.90
58096;DHT22;43908;53.038;6.666;2022-10-17T07:32:41;14.40;99.90
58096;DHT22;43908;53.038;6.666;2022-10-17T07:35:07;14.50;99.90
58096;DHT22;43908;53.038;6.666;2022-10-17T07:37:32;14.60;99.90
58096;DHT22;43908;53.038;6.666;2022-10-17T07:39:58;14.70;99.90
58096;DHT22;43908;53.038;6.666;2022-10-17T07:42:23;14.80;99.90
58096;DHT22;43908;53.038;6.666;2022-10-17T07:44:49;14.80;99.90
58096;DHT22;43908;53.038;6.666;2022-10-17T07:47:15;14.80;99.90
58096;DHT22;43908;53.038;6.666;2022-10-17T07:49:41;14.90;99.90
58096;DHT22;43908;53.038;6.666;2022-10-17T07:52:09;15.00;99.90
58096;DHT22;43908;53.038;6.666;2022-10-17T07:54:35;15.00;99.90
58096;DHT22;43908;53.038;6.666;2022-10-17T07:57:00;15.10;99.90
58096;DHT22;43908;53.038;6.666;2022-10-17T07:59:26;15.30;99.90
58096;DHT22;43908;53.038;6.666;2022-10-17T08:01:54;15.30;99.90
58096;DHT22;43908;53.038;6.666;2022-10-17T08:04:19;15.30;99.90
58096;DHT22;43908;53.038;6.666;2022-10-17T08:06:45;15.40;99.90
58096;DHT22;43908;53.038;6.666;2022-10-17T08:09:10;15.40;99.90
58096;DHT22;43908;53.038;6.666;2022-10-17T08:11:36;15.40;99.90
58096;DHT22;43908;53.038;6.666;2022-10-17T08:14:01;15.40;99.90
58096;DHT22;43908;53.038;6.666;2022-10-17T08:16:27;15.60;99.90
58096;DHT22;43908;53.038;6.666;2022-10-17T08:18:52;15.60;99.90
58096;DHT22;43908;53.038;6.666;2022-10-17T08:21:18;15.80;99.90
58096;DHT22;43908;53.038;6.666;2022-10-17T08:23:43;15.90;99.90
58096;DHT22;43908;53.038;6.666;2022-10-17T08:26:09;15.90;99.90
58096;DHT22;43908;53.038;6.666;2022-10-17T08:28:38;16.10;99.90
58096;DHT22;43908;53.038;6.666;2022-10-17T08:31:11;16.10;99.90
58096;DHT22;43908;53.038;6.666;2022-10-17T08:33:36;16.20;99.90
58096;DHT22;43908;53.038;6.666;2022-10-17T08:36:02;16.20;99.90
58096;DHT22;43908;53.038;6.666;2022-10-17T08:38:28;16.20;99.90
58096;DHT22;43908;53.038;6.666;2022-10-17T08:40:59;16.20;99.90
58096;DHT22;43908;53.038;6.666;2022-10-17T08:43:27;16.20;99.90
58096;DHT22;43908;53.038;6.666;2022-10-17T08:46:03;16.20;99.90
58096;DHT22;43908;53.038;6.666;2022-10-17T08:48:30;16.20;99.90
58096;DHT22;43908;53.038;6.666;2022-10-17T08:51:09;16.20;99.90
58096;DHT22;43908;53.038;6.666;2022-10-17T08:56:06;16.20;99.90
58096;DHT22;43908;53.038;6.666;2022-10-17T08:58:35;16.20;99.90
58096;DHT22;43908;53.038;6.666;2022-10-17T09:03:49;16.20;99.90
58096;DHT22;43908;53.038;6.666;2022-10-17T09:06:21;16.30;99.90
58096;DHT22;43908;53.038;6.666;2022-10-17T09:11:18;16.30;99.90
58096;DHT22;43908;53.038;6.666;2022-10-17T09:16:27;16.50;99.90
58096;DHT22;43908;53.038;6.666;2022-10-17T09:23:59;16.60;99.90
58096;DHT22;43908;53.038;6.666;2022-10-17T09:26:25;16.60;99.90
58096;DHT22;43908;53.038;6.666;2022-10-17T09:28:53;16.60;99.90
58096;DHT22;43908;53.038;6.666;2022-10-17T09:31:39;16.60;99.90
58096;DHT22;43908;53.038;6.666;2022-10-17T09:34:07;16.60;99.90
58096;DHT22;43908;53.038;6.666;2022-10-17T09:36:38;16.60;99.90
58096;DHT22;43908;53.038;6.666;2022-10-17T09:39:15;16.60;99.90
58096;DHT22;43908;53.038;6.666;2022-10-17T09:41:42;16.60;99.90
58096;DHT22;43908;53.038;6.666;2022-10-17T09:44:13;16.60;99.90
58096;DHT22;43908;53.038;6.666;2022-10-17T09:46:39;16.60;99.90
58096;DHT22;43908;53.038;6.666;2022-10-17T09:49:09;16.60;99.90
58096;DHT22;43908;53.038;6.666;2022-10-17T09:51:36;16.60;99.90
58096;DHT22;43908;53.038;6.666;2022-10-17T09:54:16;16.60;99.90
58096;DHT22;43908;53.038;6.666;2022-10-17T09:57:04;16.60;99.90
58096;DHT22;43908;53.038;6.666;2022-10-17T09:59:34;16.60;99.90
58096;DHT22;43908;53.038;6.666;2022-10-17T10:02:17;16.50;99.90
58096;DHT22;43908;53.038;6.666;2022-10-17T10:07:21;16.50;99.90
58096;DHT22;43908;53.038;6.666;2022-10-17T10:09:47;16.50;99.90
58096;DHT22;43908;53.038;6.666;2022-10-17T10:12:16;16.50;99.90
58096;DHT22;43908;53.038;6.666;2022-10-17T10:14:42;16.40;99.90
58096;DHT22;43908;53.038;6.666;2022-10-17T10:19:52;16.30;99.90
58096;DHT22;43908;53.038;6.666;2022-10-17T10:22:18;16.30;99.90
58096;DHT22;43908;53.038;6.666;2022-10-17T10:24:44;16.20;99.90
58096;DHT22;43908;53.038;6.666;2022-10-17T10:27:16;16.20;99.90
58096;DHT22;43908;53.038;6.666;2022-10-17T10:29:49;16.20;99.90
58096;DHT22;43908;53.038;6.666;2022-10-17T10:32:17;16.20;99.90
58096;DHT22;43908;53.038;6.666;2022-10-17T10:37:17;16.20;99.90
58096;DHT22;43908;53.038;6.666;2022-10-17T10:42:20;16.10;99.90
58096;DHT22;43908;53.038;6.666;2022-10-17T10:44:46;16.10;99.90
58096;DHT22;43908;53.038;6.666;2022-10-17T10:47:23;16.20;99.90
58096;DHT22;43908;53.038;6.666;2022-10-17T10:49:50;16.10;99.90
58096;DHT22;43908;53.038;6.666;2022-10-17T10:52:39;16.00;99.90
58096;DHT22;43908;53.038;6.666;2022-10-17T10:57:46;16.00;99.90
58096;DHT22;43908;53.038;6.666;2022-10-17T11:00:18;16.10;99.90
58096;DHT22;43908;53.038;6.666;2022-10-17T11:02:48;16.10;99.90
58096;DHT22;43908;53.038;6.666;2022-10-17T11:05:19;16.00;99.90
58096;DHT22;43908;53.038;6.666;2022-10-17T11:07:58;16.00;99.90
58096;DHT22;43908;53.038;6.666;2022-10-17T11:10:34;16.00;99.90
58096;DHT22;43908;53.038;6.666;2022-10-17T11:13:14;16.00;99.90
58096;DHT22;43908;53.038;6.666;2022-10-17T11:15:44;16.00;99.90
58096;DHT22;43908;53.038;6.666;2022-10-17T11:23:33;16.10;99.90
58096;DHT22;43908;53.038;6.666;2022-10-17T11:26:03;16.20;99.90
58096;DHT22;43908;53.038;6.666;2022-10-17T11:28:29;16.30;99.90
58096;DHT22;43908;53.038;6.666;2022-10-17T11:30:59;16.20;99.90
58096;DHT22;43908;53.038;6.666;2022-10-17T11:33:27;16.30;99.90
58096;DHT22;43908;53.038;6.666;2022-10-17T11:35:57;16.30;99.90
58096;DHT22;43908;53.038;6.666;2022-10-17T11:38:26;16.20;99.90
58096;DHT22;43908;53.038;6.666;2022-10-17T11:40:54;16.20;99.90
58096;DHT22;43908;53.038;6.666;2022-10-17T11:43:32;16.20;99.90
58096;DHT22;43908;53.038;6.666;2022-10-17T11:46:13;16.20;99.90
58096;DHT22;43908;53.038;6.666;2022-10-17T11:48:41;16.30;99.90
58096;DHT22;43908;53.038;6.666;2022-10-17T11:51:10;16.20;99.90
58096;DHT22;43908;53.038;6.666;2022-10-17T11:53:43;16.30;99.90
58096;DHT22;43908;53.038;6.666;2022-10-17T11:56:09;16.30;99.90
58096;DHT22;43908;53.038;6.666;2022-10-17T12:06:31;16.40;99.90
58096;DHT22;43908;53.038;6.666;2022-10-17T12:09:01;16.50;99.90
58096;DHT22;43908;53.038;6.666;2022-10-17T12:13:59;16.70;99.90
58096;DHT22;43908;53.038;6.666;2022-10-17T12:21:24;17.00;99.90
58096;DHT22;43908;53.038;6.666;2022-10-17T12:23:50;17.10;99.90
58096;DHT22;43908;53.038;6.666;2022-10-17T12:26:24;17.20;99.90
58096;DHT22;43908;53.038;6.666;2022-10-17T12:28:49;17.30;99.90
58096;DHT22;43908;53.038;6.666;2022-10-17T12:38:45;17.40;99.90
58096;DHT22;43908;53.038;6.666;2022-10-17T12:41:11;17.30;99.90
58096;DHT22;43908;53.038;6.666;2022-10-17T12:46:08;17.20;99.90
58096;DHT22;43908;53.038;6.666;2022-10-17T12:56:07;17.00;99.90
58096;DHT22;43908;53.038;6.666;2022-10-17T12:58:33;17.00;99.90
58096;DHT22;43908;53.038;6.666;2022-10-17T13:01:00;16.80;99.90
58096;DHT22;43908;53.038;6.666;2022-10-17T13:03:27;16.80;99.90
58096;DHT22;43908;53.038;6.666;2022-10-17T13:05:56;16.70;99.90
58096;DHT22;43908;53.038;6.666;2022-10-17T13:08:23;16.70;99.90
58096;DHT22;43908;53.038;6.666;2022-10-17T13:10:51;16.60;99.90
58096;DHT22;43908;53.038;6.666;2022-10-17T13:15:47;16.40;99.90
58096;DHT22;43908;53.038;6.666;2022-10-17T13:18:20;16.30;99.90
58096;DHT22;43908;53.038;6.666;2022-10-17T13:20:56;16.30;99.90
58096;DHT22;43908;53.038;6.666;2022-10-17T13:23:23;16.20;99.90
58096;DHT22;43908;53.038;6.666;2022-10-17T13:31:50;16.20;99.90
58096;DHT22;43908;53.038;6.666;2022-10-17T13:34:20;16.10;99.90
58096;DHT22;43908;53.038;6.666;2022-10-17T13:36:47;16.10;99.90
58096;DHT22;43908;53.038;6.666;2022-10-17T13:39:13;16.10;99.90
58096;DHT22;43908;53.038;6.666;2022-10-17T13:41:39;16.10;99.90
58096;DHT22;43908;53.038;6.666;2022-10-17T13:44:08;16.10;99.90
58096;DHT22;43908;53.038;6.666;2022-10-17T13:46:35;16.10;99.90
58096;DHT22;43908;53.038;6.666;2022-10-17T13:49:10;16.10;99.90
58096;DHT22;43908;53.038;6.666;2022-10-17T13:51:40;16.00;99.90
58096;DHT22;43908;53.038;6.666;2022-10-17T13:54:16;16.00;99.90
58096;DHT22;43908;53.038;6.666;2022-10-17T13:56:42;16.00;99.90
58096;DHT22;43908;53.038;6.666;2022-10-17T13:59:16;15.90;99.90
58096;DHT22;43908;53.038;6.666;2022-10-17T14:01:44;16.00;99.90
58096;DHT22;43908;53.038;6.666;2022-10-17T14:04:09;16.00;99.90
58096;DHT22;43908;53.038;6.666;2022-10-17T14:06:39;15.90;99.90
58096;DHT22;43908;53.038;6.666;2022-10-17T14:09:06;15.90;99.90
58096;DHT22;43908;53.038;6.666;2022-10-17T14:11:33;15.90;99.90
58096;DHT22;43908;53.038;6.666;2022-10-17T14:14:00;16.00;99.90
58096;DHT22;43908;53.038;6.666;2022-10-17T14:16:26;15.90;99.90
58096;DHT22;43908;53.038;6.666;2022-10-17T14:18:57;15.90;99.90
58096;DHT22;43908;53.038;6.666;2022-10-17T14:21:24;15.90;99.90
58096;DHT22;43908;53.038;6.666;2022-10-17T14:23:51;15.80;99.90
58096;DHT22;43908;53.038;6.666;2022-10-17T14:26:18;15.80;99.90
58096;DHT22;43908;53.038;6.666;2022-10-17T14:28:47;15.80;99.90
58096;DHT22;43908;53.038;6.666;2022-10-17T14:31:28;15.80;99.90
58096;DHT22;43908;53.038;6.666;2022-10-17T14:33:54;15.80;99.90
58096;DHT22;43908;53.038;6.666;2022-10-17T14:36:20;15.80;99.90
58096;DHT22;43908;53.038;6.666;2022-10-17T14:38:53;15.80;99.90
58096;DHT22;43908;53.038;6.666;2022-10-17T14:41:29;15.80;99.90
58096;DHT22;43908;53.038;6.666;2022-10-17T14:44:03;15.80;99.90
58096;DHT22;43908;53.038;6.666;2022-10-17T14:46:31;15.80;99.90
58096;DHT22;43908;53.038;6.666;2022-10-17T14:49:15;15.80;99.90
58096;DHT22;43908;53.038;6.666;2022-10-17T14:52:08;15.80;99.90
58096;DHT22;43908;53.038;6.666;2022-10-17T14:54:26;15.80;99.90
58096;DHT22;43908;53.038;6.666;2022-10-17T14:56:54;15.70;99.90
58096;DHT22;43908;53.038;6.666;2022-10-17T14:59:20;15.70;99.90
58096;DHT22;43908;53.038;6.666;2022-10-17T15:01:50;15.70;99.90
58096;DHT22;43908;53.038;6.666;2022-10-17T15:04:15;15.60;99.90
58096;DHT22;43908;53.038;6.666;2022-10-17T15:06:41;15.60;99.90
58096;DHT22;43908;53.038;6.666;2022-10-17T15:09:08;15.60;99.90
58096;DHT22;43908;53.038;6.666;2022-10-17T15:11:33;15.60;99.90
58096;DHT22;43908;53.038;6.666;2022-10-17T15:13:59;15.50;99.90
58096;DHT22;43908;53.038;6.666;2022-10-17T15:16:25;15.50;99.90
58096;DHT22;43908;53.038;6.666;2022-10-17T15:18:51;15.50;99.90
58096;DHT22;43908;53.038;6.666;2022-10-17T15:21:21;15.40;99.90
58096;DHT22;43908;53.038;6.666;2022-10-17T15:23:47;15.50;99.90
58096;DHT22;43908;53.038;6.666;2022-10-17T15:28:39;15.50;99.90
58096;DHT22;43908;53.038;6.666;2022-10-17T15:31:04;15.50;99.90
58096;DHT22;43908;53.038;6.666;2022-10-17T15:33:30;15.60;99.90
58096;DHT22;43908;53.038;6.666;2022-10-17T15:35:55;15.60;99.90
58096;DHT22;43908;53.038;6.666;2022-10-17T15:38:20;15.60;99.90
58096;DHT22;43908;53.038;6.666;2022-10-17T15:40:46;15.50;99.90
58096;DHT22;43908;53.038;6.666;2022-10-17T15:43:15;15.50;99.90
58096;DHT22;43908;53.038;6.666;2022-10-17T15:45:40;15.50;99.90
58096;DHT22;43908;53.038;6.666;2022-10-17T15:48:06;15.50;99.90
58096;DHT22;43908;53.038;6.666;2022-10-17T15:50:31;15.40;99.90
58096;DHT22;43908;53.038;6.666;2022-10-17T15:52:57;15.30;99.90
58096;DHT22;43908;53.038;6.666;2022-10-17T15:55:23;15.20;99.90
58096;DHT22;43908;53.038;6.666;2022-10-17T15:57:49;15.20;99.90
58096;DHT22;43908;53.038;6.666;2022-10-17T16:00:15;15.20;99.90
58096;DHT22;43908;53.038;6.666;2022-10-17T16:02:42;15.10;99.90
58096;DHT22;43908;53.038;6.666;2022-10-17T16:05:09;15.00;99.90
58096;DHT22;43908;53.038;6.666;2022-10-17T16:07:37;15.00;99.90
58096;DHT22;43908;53.038;6.666;2022-10-17T16:10:03;14.90;99.90
58096;DHT22;43908;53.038;6.666;2022-10-17T16:12:28;14.80;99.90
58096;DHT22;43908;53.038;6.666;2022-10-17T16:14:55;14.80;99.90
58096;DHT22;43908;53.038;6.666;2022-10-17T16:17:21;14.80;99.90
58096;DHT22;43908;53.038;6.666;2022-10-17T16:19:46;14.70;99.90
58096;DHT22;43908;53.038;6.666;2022-10-17T16:22:17;14.60;99.90
58096;DHT22;43908;53.038;6.666;2022-10-17T16:24:44;14.60;99.90
58096;DHT22;43908;53.038;6.666;2022-10-17T16:27:09;14.50;99.90
58096;DHT22;43908;53.038;6.666;2022-10-17T16:29:35;14.50;99.90
58096;DHT22;43908;53.038;6.666;2022-10-17T16:32:00;14.40;99.90
58096;DHT22;43908;53.038;6.666;2022-10-17T16:34:25;14.40;99.90
58096;DHT22;43908;53.038;6.666;2022-10-17T16:36:51;14.30;99.90
58096;DHT22;43908;53.038;6.666;2022-10-17T16:39:16;14.30;99.90
58096;DHT22;43908;53.038;6.666;2022-10-17T16:41:42;14.20;99.90
58096;DHT22;43908;53.038;6.666;2022-10-17T16:44:09;14.20;99.90
58096;DHT22;43908;53.038;6.666;2022-10-17T16:46:35;14.10;99.90
58096;DHT22;43908;53.038;6.666;2022-10-17T16:49:02;14.10;99.90
58096;DHT22;43908;53.038;6.666;2022-10-17T16:51:28;14.10;99.90
58096;DHT22;43908;53.038;6.666;2022-10-17T16:53:53;14.00;99.90
58096;DHT22;43908;53.038;6.666;2022-10-17T16:56:21;14.00;99.90
58096;DHT22;43908;53.038;6.666;2022-10-17T16:58:47;14.00;99.90
58096;DHT22;43908;53.038;6.666;2022-10-17T17:01:14;13.90;99.90
58096;DHT22;43908;53.038;6.666;2022-10-17T17:03:40;13.90;99.90
58096;DHT22;43908;53.038;6.666;2022-10-17T17:06:07;13.90;99.90
58096;DHT22;43908;53.038;6.666;2022-10-17T17:08:33;13.90;99.90
58096;DHT22;43908;53.038;6.666;2022-10-17T17:11:01;13.80;99.90
58096;DHT22;43908;53.038;6.666;2022-10-17T17:13:27;13.80;99.90